sensor_id;sensor_type;location;lat;lon;timestamp;pressure;altitude;pressure_sealevel;temperature;humidity
77027;BME280;65956;52.986;17.490;2023-04-03T00:01:20;101450.77;;;-0.66;73.57
77027;BME280;65956;52.986;17.490;2023-04-03T00:03:47;101447.73;;;-0.68;73.75
77027;BME280;65956;52.986;17.490;2023-04-03T00:06:13;101445.10;;;-0.69;73.66
77027;BME280;65956;52.986;17.490;2023-04-03T00:08:40;101446.04;;;-0.71;73.69
77027;BME280;65956;52.986;17.490;2023-04-03T00:11:06;101447.08;;;-0.70;73.96
77027;BME280;65956;52.986;17.490;2023-04-03T00:13:33;101446.80;;;-0.72;73.83
77027;BME280;65956;52.986;17.490;2023-04-03T00:15:59;101439.77;;;-0.72;73.75
77027;BME280;65956;52.986;17.490;2023-04-03T00:18:25;101445.64;;;-0.69;73.80
77027;BME280;65956;52.986;17.490;2023-04-03T00:20:51;101449.20;;;-0.70;73.94
77027;BME280;65956;52.986;17.490;2023-04-03T00:23:17;101447.35;;;-0.71;73.77
77027;BME280;65956;52.986;17.490;2023-04-03T00:25:43;101445.92;;;-0.68;73.76
77027;BME280;65956;52.986;17.490;2023-04-03T00:28:09;101444.23;;;-0.68;73.57
77027;BME280;65956;52.986;17.490;2023-04-03T00:30:36;101445.29;;;-0.66;74.09
77027;BME280;65956;52.986;17.490;2023-04-03T00:33:02;101447.90;;;-0.70;74.15
77027;BME280;65956;52.986;17.490;2023-04-03T00:35:29;101448.61;;;-0.70;74.05
77027;BME280;65956;52.986;17.490;2023-04-03T00:37:55;101444.23;;;-0.71;74.39
77027;BME280;65956;52.986;17.490;2023-04-03T00:40:24;101448.50;;;-0.71;74.33
77027;BME280;65956;52.986;17.490;2023-04-03T00:42:57;101446.52;;;-0.72;74.23
77027;BME280;65956;52.986;17.490;2023-04-03T00:45:34;101447.95;;;-0.74;74.13
77027;BME280;65956;52.986;17.490;2023-04-03T00:48:04;101448.48;;;-0.72;74.24
77027;BME280;65956;52.986;17.490;2023-04-03T00:50:35;101448.92;;;-0.73;74.32
77027;BME280;65956;52.986;17.490;2023-04-03T00:53:04;101453.79;;;-0.75;74.33
77027;BME280;65956;52.986;17.490;2023-04-03T00:55:31;101450.98;;;-0.77;74.58
77027;BME280;65956;52.986;17.490;2023-04-03T00:57:59;101454.94;;;-0.78;74.43
77027;BME280;65956;52.986;17.490;2023-04-03T01:00:26;101453.63;;;-0.79;74.42
77027;BME280;65956;52.986;17.490;2023-04-03T01:02:52;101456.73;;;-0.79;74.55
77027;BME280;65956;52.986;17.490;2023-04-03T01:05:21;101453.88;;;-0.82;74.42
77027;BME280;65956;52.986;17.490;2023-04-03T01:07:49;101461.42;;;-0.82;74.46
77027;BME280;65956;52.986;17.490;2023-04-03T01:10:18;101459.02;;;-0.85;74.72
77027;BME280;65956;52.986;17.490;2023-04-03T01:12:47;101460.14;;;-0.86;74.61
77027;BME280;65956;52.986;17.490;2023-04-03T01:15:21;101458.95;;;-0.84;74.80
77027;BME280;65956;52.986;17.490;2023-04-03T01:17:54;101460.59;;;-0.86;74.85
77027;BME280;65956;52.986;17.490;2023-04-03T01:25:39;101457.52;;;-0.89;75.27
77027;BME280;65956;52.986;17.490;2023-04-03T01:28:09;101460.97;;;-0.91;75.26
77027;BME280;65956;52.986;17.490;2023-04-03T01:30:44;101458.88;;;-0.94;75.21
77027;BME280;65956;52.986;17.490;2023-04-03T01:33:12;101461.55;;;-0.96;74.98
77027;BME280;65956;52.986;17.490;2023-04-03T01:35:38;101457.10;;;-0.98;75.36
77027;BME280;65956;52.986;17.490;2023-04-03T01:38:05;101462.41;;;-0.99;75.70
77027;BME280;65956;52.986;17.490;2023-04-03T01:40:32;101460.44;;;-1.01;75.40
77027;BME280;65956;52.986;17.490;2023-04-03T01:42:58;101468.20;;;-1.02;76.02
77027;BME280;65956;52.986;17.490;2023-04-03T01:45:24;101464.41;;;-1.02;75.45
77027;BME280;65956;52.986;17.490;2023-04-03T01:47:50;101465.95;;;-1.03;75.75
77027;BME280;65956;52.986;17.490;2023-04-03T01:50:17;101467.02;;;-1.06;75.72
77027;BME280;65956;52.986;17.490;2023-04-03T01:52:44;101467.52;;;-1.06;75.65
77027;BME280;65956;52.986;17.490;2023-04-03T01:55:10;101468.78;;;-1.06;75.77
77027;BME280;65956;52.986;17.490;2023-04-03T01:57:36;101469.02;;;-1.11;75.88
77027;BME280;65956;52.986;17.490;2023-04-03T02:00:02;101471.27;;;-1.11;76.19
77027;BME280;65956;52.986;17.490;2023-04-03T02:02:39;101470.66;;;-1.12;76.14
77027;BME280;65956;52.986;17.490;2023-04-03T02:05:06;101464.76;;;-1.13;76.25
77027;BME280;65956;52.986;17.490;2023-04-03T02:07:32;101465.84;;;-1.12;76.14
77027;BME280;65956;52.986;17.490;2023-04-03T02:09:58;101463.98;;;-1.12;75.95
77027;BME280;65956;52.986;17.490;2023-04-03T02:12:24;101468.02;;;-1.16;76.14
77027;BME280;65956;52.986;17.490;2023-04-03T02:14:50;101468.61;;;-1.19;75.99
77027;BME280;65956;52.986;17.490;2023-04-03T02:17:16;101472.48;;;-1.21;76.05
77027;BME280;65956;52.986;17.490;2023-04-03T02:19:42;101470.63;;;-1.20;76.16
77027;BME280;65956;52.986;17.490;2023-04-03T02:22:08;101476.73;;;-1.21;76.17
77027;BME280;65956;52.986;17.490;2023-04-03T02:24:35;101477.13;;;-1.20;76.06
77027;BME280;65956;52.986;17.490;2023-04-03T02:27:01;101480.77;;;-1.21;76.04
77027;BME280;65956;52.986;17.490;2023-04-03T02:29:27;101481.67;;;-1.23;75.97
77027;BME280;65956;52.986;17.490;2023-04-03T02:31:53;101485.09;;;-1.25;76.27
77027;BME280;65956;52.986;17.490;2023-04-03T02:34:20;101489.45;;;-1.22;75.96
77027;BME280;65956;52.986;17.490;2023-04-03T02:36:47;101488.56;;;-1.22;76.11
77027;BME280;65956;52.986;17.490;2023-04-03T02:39:13;101488.61;;;-1.23;76.16
77027;BME280;65956;52.986;17.490;2023-04-03T02:41:39;101493.38;;;-1.21;75.96
77027;BME280;65956;52.986;17.490;2023-04-03T02:44:11;101496.55;;;-1.19;75.71
77027;BME280;65956;52.986;17.490;2023-04-03T02:46:37;101500.55;;;-1.19;75.74
77027;BME280;65956;52.986;17.490;2023-04-03T02:49:04;101497.48;;;-1.22;75.82
77027;BME280;65956;52.986;17.490;2023-04-03T02:51:30;101501.77;;;-1.25;75.76
77027;BME280;65956;52.986;17.490;2023-04-03T02:53:56;101498.43;;;-1.27;76.08
77027;BME280;65956;52.986;17.490;2023-04-03T02:56:25;101500.21;;;-1.30;76.00
77027;BME280;65956;52.986;17.490;2023-04-03T02:58:52;101505.23;;;-1.33;76.29
77027;BME280;65956;52.986;17.490;2023-04-03T03:01:19;101503.27;;;-1.38;76.39
77027;BME280;65956;52.986;17.490;2023-04-03T03:03:45;101502.06;;;-1.39;76.69
77027;BME280;65956;52.986;17.490;2023-04-03T03:06:13;101501.79;;;-1.41;76.75
77027;BME280;65956;52.986;17.490;2023-04-03T03:08:41;101505.86;;;-1.45;76.58
77027;BME280;65956;52.986;17.490;2023-04-03T03:11:07;101503.69;;;-1.51;76.69
77027;BME280;65956;52.986;17.490;2023-04-03T03:13:34;101503.80;;;-1.56;76.85
77027;BME280;65956;52.986;17.490;2023-04-03T03:16:01;101506.43;;;-1.58;77.10
77027;BME280;65956;52.986;17.490;2023-04-03T03:18:28;101508.62;;;-1.58;77.34
77027;BME280;65956;52.986;17.490;2023-04-03T03:20:55;101511.03;;;-1.57;77.66
77027;BME280;65956;52.986;17.490;2023-04-03T03:23:23;101512.71;;;-1.56;77.40
77027;BME280;65956;52.986;17.490;2023-04-03T03:25:55;101512.64;;;-1.59;77.40
77027;BME280;65956;52.986;17.490;2023-04-03T03:28:21;101508.02;;;-1.63;77.26
77027;BME280;65956;52.986;17.490;2023-04-03T03:30:48;101508.01;;;-1.66;77.57
77027;BME280;65956;52.986;17.490;2023-04-03T03:33:14;101507.00;;;-1.69;77.74
77027;BME280;65956;52.986;17.490;2023-04-03T03:35:40;101514.15;;;-1.70;77.57
77027;BME280;65956;52.986;17.490;2023-04-03T03:38:07;101514.63;;;-1.72;77.82
77027;BME280;65956;52.986;17.490;2023-04-03T03:40:33;101511.65;;;-1.74;77.90
77027;BME280;65956;52.986;17.490;2023-04-03T03:43:00;101516.18;;;-1.75;78.39
77027;BME280;65956;52.986;17.490;2023-04-03T03:45:26;101516.66;;;-1.78;78.25
77027;BME280;65956;52.986;17.490;2023-04-03T03:47:52;101520.77;;;-1.81;78.15
77027;BME280;65956;52.986;17.490;2023-04-03T03:50:19;101517.60;;;-1.83;78.21
77027;BME280;65956;52.986;17.490;2023-04-03T03:52:45;101519.11;;;-1.86;78.24
77027;BME280;65956;52.986;17.490;2023-04-03T03:55:11;101525.15;;;-1.87;78.25
77027;BME280;65956;52.986;17.490;2023-04-03T03:57:38;101532.52;;;-1.88;78.65
77027;BME280;65956;52.986;17.490;2023-04-03T04:00:05;101530.61;;;-1.89;78.52
77027;BME280;65956;52.986;17.490;2023-04-03T04:02:42;101536.20;;;-1.85;78.56
77027;BME280;65956;52.986;17.490;2023-04-03T04:05:09;101536.45;;;-1.85;78.85
77027;BME280;65956;52.986;17.490;2023-04-03T04:07:36;101537.86;;;-1.85;78.81
77027;BME280;65956;52.986;17.490;2023-04-03T04:10:03;101534.15;;;-1.84;78.69
77027;BME280;65956;52.986;17.490;2023-04-03T04:12:31;101534.70;;;-1.84;78.71
77027;BME280;65956;52.986;17.490;2023-04-03T04:14:57;101538.36;;;-1.82;78.80
77027;BME280;65956;52.986;17.490;2023-04-03T04:17:23;101542.08;;;-1.82;78.60
77027;BME280;65956;52.986;17.490;2023-04-03T04:19:49;101543.45;;;-1.82;78.79
77027;BME280;65956;52.986;17.490;2023-04-03T04:22:16;101545.38;;;-1.80;78.85
77027;BME280;65956;52.986;17.490;2023-04-03T04:24:42;101547.23;;;-1.80;78.68
77027;BME280;65956;52.986;17.490;2023-04-03T04:27:08;101545.16;;;-1.80;78.94
77027;BME280;65956;52.986;17.490;2023-04-03T04:29:35;101547.08;;;-1.79;78.82
77027;BME280;65956;52.986;17.490;2023-04-03T04:32:04;101551.48;;;-1.76;78.95
77027;BME280;65956;52.986;17.490;2023-04-03T04:34:30;101551.20;;;-1.76;78.89
77027;BME280;65956;52.986;17.490;2023-04-03T04:36:56;101545.82;;;-1.72;78.76
77027;BME280;65956;52.986;17.490;2023-04-03T04:39:23;101550.80;;;-1.66;78.70
77027;BME280;65956;52.986;17.490;2023-04-03T04:41:49;101551.21;;;-1.61;78.53
77027;BME280;65956;52.986;17.490;2023-04-03T04:44:16;101552.52;;;-1.57;78.41
77027;BME280;65956;52.986;17.490;2023-04-03T04:46:42;101551.32;;;-1.55;77.97
77027;BME280;65956;52.986;17.490;2023-04-03T04:49:08;101556.33;;;-1.52;78.08
77027;BME280;65956;52.986;17.490;2023-04-03T04:51:34;101554.81;;;-1.48;77.82
77027;BME280;65956;52.986;17.490;2023-04-03T04:54:01;101558.01;;;-1.46;77.70
77027;BME280;65956;52.986;17.490;2023-04-03T04:56:27;101558.94;;;-1.43;77.60
77027;BME280;65956;52.986;17.490;2023-04-03T04:58:54;101559.47;;;-1.41;77.47
77027;BME280;65956;52.986;17.490;2023-04-03T05:01:21;101560.74;;;-1.37;77.57
77027;BME280;65956;52.986;17.490;2023-04-03T05:03:58;101563.28;;;-1.35;77.27
77027;BME280;65956;52.986;17.490;2023-04-03T05:06:25;101566.04;;;-1.31;76.79
77027;BME280;65956;52.986;17.490;2023-04-03T05:08:51;101569.34;;;-1.28;76.91
77027;BME280;65956;52.986;17.490;2023-04-03T05:11:17;101569.25;;;-1.25;76.94
77027;BME280;65956;52.986;17.490;2023-04-03T05:13:44;101575.29;;;-1.20;76.56
77027;BME280;65956;52.986;17.490;2023-04-03T05:16:10;101574.30;;;-1.17;76.36
77027;BME280;65956;52.986;17.490;2023-04-03T05:18:37;101581.06;;;-1.10;76.14
77027;BME280;65956;52.986;17.490;2023-04-03T05:21:07;101577.91;;;-1.06;76.13
77027;BME280;65956;52.986;17.490;2023-04-03T05:23:33;101575.47;;;-1.02;75.66
77027;BME280;65956;52.986;17.490;2023-04-03T05:26:00;101575.23;;;-0.96;75.31
77027;BME280;65956;52.986;17.490;2023-04-03T05:28:26;101568.38;;;-0.91;75.15
77027;BME280;65956;52.986;17.490;2023-04-03T05:30:54;101578.09;;;-0.87;74.75
77027;BME280;65956;52.986;17.490;2023-04-03T05:33:21;101572.63;;;-0.81;74.92
77027;BME280;65956;52.986;17.490;2023-04-03T05:35:51;101575.23;;;-0.76;74.00
77027;BME280;65956;52.986;17.490;2023-04-03T05:38:20;101577.67;;;-0.69;73.98
77027;BME280;65956;52.986;17.490;2023-04-03T05:40:46;101580.66;;;-0.63;73.94
77027;BME280;65956;52.986;17.490;2023-04-03T05:43:13;101580.84;;;-0.58;73.58
77027;BME280;65956;52.986;17.490;2023-04-03T05:45:39;101584.10;;;-0.52;73.47
77027;BME280;65956;52.986;17.490;2023-04-03T05:48:06;101583.95;;;-0.46;73.19
77027;BME280;65956;52.986;17.490;2023-04-03T05:50:34;101590.93;;;-0.40;72.84
77027;BME280;65956;52.986;17.490;2023-04-03T05:53:02;101587.98;;;-0.36;72.69
77027;BME280;65956;52.986;17.490;2023-04-03T05:55:30;101592.12;;;-0.30;72.10
77027;BME280;65956;52.986;17.490;2023-04-03T05:57:57;101585.19;;;-0.24;71.84
77027;BME280;65956;52.986;17.490;2023-04-03T06:00:23;101587.66;;;-0.19;71.33
77027;BME280;65956;52.986;17.490;2023-04-03T06:02:56;101588.67;;;-0.13;71.18
77027;BME280;65956;52.986;17.490;2023-04-03T06:05:23;101591.20;;;-0.08;70.99
77027;BME280;65956;52.986;17.490;2023-04-03T06:07:49;101593.36;;;0.02;71.50
77027;BME280;65956;52.986;17.490;2023-04-03T06:10:15;101594.41;;;0.10;70.92
77027;BME280;65956;52.986;17.490;2023-04-03T06:12:42;101595.69;;;0.21;70.62
77027;BME280;65956;52.986;17.490;2023-04-03T06:15:08;101596.31;;;0.30;69.47
77027;BME280;65956;52.986;17.490;2023-04-03T06:17:36;101593.84;;;0.36;68.71
77027;BME280;65956;52.986;17.490;2023-04-03T06:20:04;101603.89;;;0.43;68.44
77027;BME280;65956;52.986;17.490;2023-04-03T06:22:30;101601.36;;;0.48;68.01
77027;BME280;65956;52.986;17.490;2023-04-03T06:24:57;101608.66;;;0.59;68.64
77027;BME280;65956;52.986;17.490;2023-04-03T06:27:23;101610.58;;;0.70;68.12
77027;BME280;65956;52.986;17.490;2023-04-03T06:29:49;101612.43;;;0.78;67.29
77027;BME280;65956;52.986;17.490;2023-04-03T06:32:16;101611.08;;;0.84;66.84
77027;BME280;65956;52.986;17.490;2023-04-03T06:34:42;101609.96;;;0.87;66.35
77027;BME280;65956;52.986;17.490;2023-04-03T06:37:19;101610.49;;;0.99;67.03
77027;BME280;65956;52.986;17.490;2023-04-03T06:39:46;101612.89;;;1.11;66.19
77027;BME280;65956;52.986;17.490;2023-04-03T06:42:12;101615.40;;;1.19;65.57
77027;BME280;65956;52.986;17.490;2023-04-03T06:44:45;101617.25;;;1.22;65.04
77027;BME280;65956;52.986;17.490;2023-04-03T06:47:13;101617.81;;;1.23;64.13
77027;BME280;65956;52.986;17.490;2023-04-03T06:49:41;101623.23;;;1.27;64.20
77027;BME280;65956;52.986;17.490;2023-04-03T06:52:08;101618.60;;;1.35;63.99
77027;BME280;65956;52.986;17.490;2023-04-03T06:54:34;101626.20;;;1.45;61.47
77027;BME280;65956;52.986;17.490;2023-04-03T06:57:01;101621.55;;;1.55;59.92
77027;BME280;65956;52.986;17.490;2023-04-03T06:59:28;101625.52;;;1.67;58.28
77027;BME280;65956;52.986;17.490;2023-04-03T07:01:54;101626.61;;;1.80;58.23
77027;BME280;65956;52.986;17.490;2023-04-03T07:04:20;101619.13;;;1.84;56.90
77027;BME280;65956;52.986;17.490;2023-04-03T07:06:47;101634.02;;;1.94;57.36
77027;BME280;65956;52.986;17.490;2023-04-03T07:09:14;101628.20;;;1.95;55.76
77027;BME280;65956;52.986;17.490;2023-04-03T07:11:40;101632.55;;;2.03;56.83
77027;BME280;65956;52.986;17.490;2023-04-03T07:14:06;101631.21;;;2.08;55.22
77027;BME280;65956;52.986;17.490;2023-04-03T07:16:34;101638.20;;;2.06;54.36
77027;BME280;65956;52.986;17.490;2023-04-03T07:19:01;101639.58;;;2.06;54.05
77027;BME280;65956;52.986;17.490;2023-04-03T07:21:27;101640.02;;;2.05;53.48
77027;BME280;65956;52.986;17.490;2023-04-03T07:23:54;101637.40;;;2.00;52.91
77027;BME280;65956;52.986;17.490;2023-04-03T07:26:21;101641.13;;;2.14;54.64
77027;BME280;65956;52.986;17.490;2023-04-03T07:28:49;101640.17;;;2.17;52.94
77027;BME280;65956;52.986;17.490;2023-04-03T07:31:16;101646.48;;;2.18;52.73
77027;BME280;65956;52.986;17.490;2023-04-03T07:33:43;101636.82;;;2.26;52.37
77027;BME280;65956;52.986;17.490;2023-04-03T07:36:14;101650.06;;;2.34;52.38
77027;BME280;65956;52.986;17.490;2023-04-03T07:38:41;101650.64;;;2.32;51.72
77027;BME280;65956;52.986;17.490;2023-04-03T07:41:18;101651.22;;;2.19;51.63
77027;BME280;65956;52.986;17.490;2023-04-03T07:43:45;101658.98;;;2.17;52.31
77027;BME280;65956;52.986;17.490;2023-04-03T07:46:12;101662.87;;;2.29;52.70
77027;BME280;65956;52.986;17.490;2023-04-03T07:48:38;101667.06;;;2.45;52.36
77027;BME280;65956;52.986;17.490;2023-04-03T07:51:05;101666.14;;;2.52;51.54
77027;BME280;65956;52.986;17.490;2023-04-03T07:53:32;101669.17;;;2.51;51.41
77027;BME280;65956;52.986;17.490;2023-04-03T07:55:59;101667.99;;;2.54;51.72
77027;BME280;65956;52.986;17.490;2023-04-03T07:58:25;101664.45;;;2.57;51.15
77027;BME280;65956;52.986;17.490;2023-04-03T08:00:52;101669.52;;;2.50;51.40
77027;BME280;65956;52.986;17.490;2023-04-03T08:03:18;101668.20;;;2.47;52.02
77027;BME280;65956;52.986;17.490;2023-04-03T08:05:46;101671.77;;;2.49;52.13
77027;BME280;65956;52.986;17.490;2023-04-03T08:08:15;101671.39;;;2.62;52.35
77027;BME280;65956;52.986;17.490;2023-04-03T08:10:42;101672.26;;;2.80;52.20
77027;BME280;65956;52.986;17.490;2023-04-03T08:13:09;101671.76;;;3.01;51.31
77027;BME280;65956;52.986;17.490;2023-04-03T08:15:35;101670.89;;;3.24;51.37
77027;BME280;65956;52.986;17.490;2023-04-03T08:18:02;101664.20;;;3.56;51.49
77027;BME280;65956;52.986;17.490;2023-04-03T08:20:29;101672.89;;;3.88;50.27
77027;BME280;65956;52.986;17.490;2023-04-03T08:22:56;101678.56;;;3.96;49.88
77027;BME280;65956;52.986;17.490;2023-04-03T08:25:22;101677.73;;;4.23;50.20
77027;BME280;65956;52.986;17.490;2023-04-03T08:27:48;101678.66;;;4.34;49.53
77027;BME280;65956;52.986;17.490;2023-04-03T08:30:14;101672.50;;;4.05;48.55
77027;BME280;65956;52.986;17.490;2023-04-03T08:32:40;101672.08;;;3.82;48.86
77027;BME280;65956;52.986;17.490;2023-04-03T08:35:08;101677.14;;;3.64;50.01
77027;BME280;65956;52.986;17.490;2023-04-03T08:37:36;101676.52;;;3.55;49.69
77027;BME280;65956;52.986;17.490;2023-04-03T08:40:04;101678.20;;;3.36;49.88
77027;BME280;65956;52.986;17.490;2023-04-03T08:45:33;101678.59;;;3.34;50.48
77027;BME280;65956;52.986;17.490;2023-04-03T08:50:42;101674.42;;;3.27;50.62
77027;BME280;65956;52.986;17.490;2023-04-03T08:53:14;101682.26;;;3.32;50.79
77027;BME280;65956;52.986;17.490;2023-04-03T08:55:46;101683.63;;;3.33;49.95
77027;BME280;65956;52.986;17.490;2023-04-03T09:01:58;101674.37;;;3.54;49.21
77027;BME280;65956;52.986;17.490;2023-04-03T09:04:31;101672.83;;;3.55;48.79
77027;BME280;65956;52.986;17.490;2023-04-03T09:07:13;101674.05;;;3.62;49.44
77027;BME280;65956;52.986;17.490;2023-04-03T09:09:42;101675.88;;;3.51;48.23
77027;BME280;65956;52.986;17.490;2023-04-03T09:12:23;101672.31;;;3.46;49.14
77027;BME280;65956;52.986;17.490;2023-04-03T09:20:38;101672.05;;;3.74;48.98
77027;BME280;65956;52.986;17.490;2023-04-03T09:26:07;101675.29;;;4.25;48.05
77027;BME280;65956;52.986;17.490;2023-04-03T09:28:38;101669.71;;;4.11;46.45
77027;BME280;65956;52.986;17.490;2023-04-03T09:31:42;101672.23;;;3.92;45.75
77027;BME280;65956;52.986;17.490;2023-04-03T09:36:52;101663.94;;;4.27;45.31
77027;BME280;65956;52.986;17.490;2023-04-03T09:39:22;101668.35;;;4.22;45.49
77027;BME280;65956;52.986;17.490;2023-04-03T09:42:01;101673.70;;;4.22;46.70
77027;BME280;65956;52.986;17.490;2023-04-03T09:44:38;101671.91;;;4.29;46.57
77027;BME280;65956;52.986;17.490;2023-04-03T09:47:21;101673.52;;;4.50;46.70
77027;BME280;65956;52.986;17.490;2023-04-03T09:49:49;101661.17;;;4.46;45.36
77027;BME280;65956;52.986;17.490;2023-04-03T09:52:33;101664.39;;;4.34;45.96
77027;BME280;65956;52.986;17.490;2023-04-03T09:57:48;101665.69;;;4.27;45.08
77027;BME280;65956;52.986;17.490;2023-04-03T10:02:51;101667.77;;;4.40;45.60
77027;BME280;65956;52.986;17.490;2023-04-03T10:05:37;101667.34;;;4.43;45.52
77027;BME280;65956;52.986;17.490;2023-04-03T10:10:47;101666.13;;;4.76;45.32
77027;BME280;65956;52.986;17.490;2023-04-03T10:13:18;101663.11;;;4.78;43.84
77027;BME280;65956;52.986;17.490;2023-04-03T10:16:08;101667.21;;;4.63;44.17
77027;BME280;65956;52.986;17.490;2023-04-03T10:18:46;101666.34;;;4.55;44.38
77027;BME280;65956;52.986;17.490;2023-04-03T10:21:41;101665.40;;;4.90;44.82
77027;BME280;65956;52.986;17.490;2023-04-03T10:29:34;101661.70;;;5.09;42.13
77027;BME280;65956;52.986;17.490;2023-04-03T10:37:38;101653.81;;;5.65;41.63
77027;BME280;65956;52.986;17.490;2023-04-03T10:42:48;101649.83;;;6.25;40.94
77027;BME280;65956;52.986;17.490;2023-04-03T10:53:18;101645.95;;;5.80;40.34
77027;BME280;65956;52.986;17.490;2023-04-03T10:56:08;101641.45;;;6.08;40.16
77027;BME280;65956;52.986;17.490;2023-04-03T10:58:43;101637.72;;;5.91;41.34
77027;BME280;65956;52.986;17.490;2023-04-03T11:01:16;101640.52;;;5.63;41.88
77027;BME280;65956;52.986;17.490;2023-04-03T11:03:52;101652.73;;;5.46;42.60
77027;BME280;65956;52.986;17.490;2023-04-03T11:06:21;101647.02;;;5.59;42.36
77027;BME280;65956;52.986;17.490;2023-04-03T11:09:07;101648.08;;;5.59;42.35
77027;BME280;65956;52.986;17.490;2023-04-03T11:11:38;101645.20;;;5.50;42.49
77027;BME280;65956;52.986;17.490;2023-04-03T11:16:47;101654.50;;;5.40;43.40
77027;BME280;65956;52.986;17.490;2023-04-03T11:19:20;101650.95;;;5.38;43.39
77027;BME280;65956;52.986;17.490;2023-04-03T11:22:09;101655.95;;;5.40;42.34
77027;BME280;65956;52.986;17.490;2023-04-03T11:24:39;101647.35;;;5.24;41.59
77027;BME280;65956;52.986;17.490;2023-04-03T11:27:16;101652.95;;;5.20;42.46
77027;BME280;65956;52.986;17.490;2023-04-03T11:29:46;101643.35;;;5.31;41.03
77027;BME280;65956;52.986;17.490;2023-04-03T11:34:49;101634.08;;;6.90;38.88
77027;BME280;65956;52.986;17.490;2023-04-03T11:39:58;101632.03;;;7.77;38.20
77027;BME280;65956;52.986;17.490;2023-04-03T11:42:36;101632.35;;;7.80;37.57
77027;BME280;65956;52.986;17.490;2023-04-03T11:47:52;101622.54;;;8.89;35.36
77027;BME280;65956;52.986;17.490;2023-04-03T12:00:46;101635.80;;;6.25;38.71
77027;BME280;65956;52.986;17.490;2023-04-03T12:06:41;101637.84;;;6.21;38.07
77027;BME280;65956;52.986;17.490;2023-04-03T12:08:47;101637.73;;;6.48;38.40
77027;BME280;65956;52.986;17.490;2023-04-03T12:11:32;101634.92;;;6.89;37.04
77027;BME280;65956;52.986;17.490;2023-04-03T12:16:42;101635.98;;;7.74;35.63
77027;BME280;65956;52.986;17.490;2023-04-03T12:24:25;101627.77;;;8.50;34.37
77027;BME280;65956;52.986;17.490;2023-04-03T12:35:01;101632.65;;;6.68;36.85
77027;BME280;65956;52.986;17.490;2023-04-03T12:40:21;101625.23;;;5.97;38.47
77027;BME280;65956;52.986;17.490;2023-04-03T12:43:02;101621.00;;;8.18;36.16
77027;BME280;65956;52.986;17.490;2023-04-03T12:45:44;101611.73;;;9.38;33.38
77027;BME280;65956;52.986;17.490;2023-04-03T12:48:18;101618.14;;;9.55;33.21
77027;BME280;65956;52.986;17.490;2023-04-03T12:50:49;101615.80;;;8.33;33.71
77027;BME280;65956;52.986;17.490;2023-04-03T12:53:25;101615.78;;;7.56;35.62
77027;BME280;65956;52.986;17.490;2023-04-03T12:55:56;101615.21;;;6.91;37.37
77027;BME280;65956;52.986;17.490;2023-04-03T12:58:38;101622.93;;;6.29;38.82
77027;BME280;65956;52.986;17.490;2023-04-03T13:01:25;101623.02;;;5.79;39.74
77027;BME280;65956;52.986;17.490;2023-04-03T13:03:54;101628.25;;;5.66;40.56
77027;BME280;65956;52.986;17.490;2023-04-03T13:06:29;101628.33;;;5.64;41.38
77027;BME280;65956;52.986;17.490;2023-04-03T13:09:00;101627.30;;;5.55;40.53
77027;BME280;65956;52.986;17.490;2023-04-03T13:11:47;101623.99;;;5.95;40.25
77027;BME280;65956;52.986;17.490;2023-04-03T13:14:20;101610.17;;;7.14;37.12
77027;BME280;65956;52.986;17.490;2023-04-03T13:17:04;101615.02;;;7.71;35.70
77027;BME280;65956;52.986;17.490;2023-04-03T13:19:30;101611.39;;;9.81;32.72
77027;BME280;65956;52.986;17.490;2023-04-03T13:22:10;101604.86;;;10.98;30.56
77027;BME280;65956;52.986;17.490;2023-04-03T13:24:46;101600.77;;;11.48;30.80
77027;BME280;65956;52.986;17.490;2023-04-03T13:27:14;101604.95;;;10.18;31.22
77027;BME280;65956;52.986;17.490;2023-04-03T13:29:41;101613.73;;;8.78;32.84
77027;BME280;65956;52.986;17.490;2023-04-03T13:32:17;101606.02;;;7.93;33.99
77027;BME280;65956;52.986;17.490;2023-04-03T13:34:45;101607.89;;;7.33;35.24
77027;BME280;65956;52.986;17.490;2023-04-03T13:40:10;101602.97;;;9.03;33.30
77027;BME280;65956;52.986;17.490;2023-04-03T13:42:40;101590.88;;;11.15;29.63
77027;BME280;65956;52.986;17.490;2023-04-03T13:45:23;101586.11;;;12.15;28.26
77027;BME280;65956;52.986;17.490;2023-04-03T13:47:53;101584.43;;;11.90;28.06
77027;BME280;65956;52.986;17.490;2023-04-03T13:50:32;101583.82;;;10.06;30.25
77027;BME280;65956;52.986;17.490;2023-04-03T13:53:08;101586.44;;;8.79;32.76
77027;BME280;65956;52.986;17.490;2023-04-03T13:55:53;101587.41;;;8.00;34.99
77027;BME280;65956;52.986;17.490;2023-04-03T13:58:26;101592.87;;;7.24;35.84
77027;BME280;65956;52.986;17.490;2023-04-03T14:01:18;101591.87;;;6.83;36.62
77027;BME280;65956;52.986;17.490;2023-04-03T14:03:56;101589.30;;;6.51;36.51
77027;BME280;65956;52.986;17.490;2023-04-03T14:06:25;101584.98;;;6.42;37.52
77027;BME280;65956;52.986;17.490;2023-04-03T14:08:52;101589.73;;;6.47;38.38
77027;BME280;65956;52.986;17.490;2023-04-03T14:11:24;101585.26;;;6.32;38.67
77027;BME280;65956;52.986;17.490;2023-04-03T14:13:53;101587.83;;;6.22;38.35
77027;BME280;65956;52.986;17.490;2023-04-03T14:16:22;101590.45;;;6.16;38.88
77027;BME280;65956;52.986;17.490;2023-04-03T14:18:50;101581.45;;;5.82;37.79
77027;BME280;65956;52.986;17.490;2023-04-03T14:21:19;101580.83;;;5.72;38.65
77027;BME280;65956;52.986;17.490;2023-04-03T14:23:45;101575.49;;;5.81;38.99
77027;BME280;65956;52.986;17.490;2023-04-03T14:26:14;101577.48;;;5.84;38.81
77027;BME280;65956;52.986;17.490;2023-04-03T14:28:42;101577.92;;;5.58;39.06
77027;BME280;65956;52.986;17.490;2023-04-03T14:31:10;101580.55;;;5.64;39.10
77027;BME280;65956;52.986;17.490;2023-04-03T14:33:38;101583.25;;;6.30;38.90
77027;BME280;65956;52.986;17.490;2023-04-03T14:38:37;101576.15;;;8.89;35.61
77027;BME280;65956;52.986;17.490;2023-04-03T14:41:03;101574.06;;;9.18;33.98